John Quigg — WDB9828 — position and weather

sailwx.info

Track history (hours):
 
Tides and Currents Weather Stations Pressure Air Temp Water Temp Dewpoint Dewpoint Depression Visibility Wind Speed Wind Dir Waves Ship Positions

John Quigg

Owner: Harley Marine Services, Inc, Seattle, WA. More information available from US FCC via Universal Licensing System and Coast Guard Vessel Documentation Center.

Last reported at 2014-Dec-20 08:08 UTC. Time now 2014-Dec-20 20:53 UTC.
Position N 33°46' W 118°13'.

MMSI: 365934954.

Date/timePositionNaut miles runAvg speedWind from/ knotsBaromVisibWave heightAir tempDewpointWater temp
2014-Dec-20 08:08N 33°46' W 118°13'1 0.1
2014-Dec-20 02:28N 33°45' W 118°13'1 0.7
2014-Dec-20 01:33N 33°46' W 118°13'1 0.1
2014-Dec-19 20:23N 33°45' W 118°13'1 1.3
2014-Dec-19 19:28N 33°46' W 118°13'1 1.3
2014-Dec-19 18:33N 33°45' W 118°13'2 0.3
2014-Dec-19 12:26N 33°46' W 118°15'0 0.0
2014-Dec-19 00:31N 33°46' W 118°16'3 3.1
2014-Dec-18 23:31N 33°44' W 118°12'3 0.3
2014-Dec-18 14:33N 33°46' W 118°15'2 1.8
2014-Dec-18 13:24N 33°46' W 118°13'1 0.3
2014-Dec-18 10:28N 33°46' W 118°13'3 0.3
2014-Dec-17 23:32N 33°45' W 118°17'3 0.4
2014-Dec-17 16:21N 33°45' W 118°13'0 0.6
2014-Dec-17 15:34N 33°46' W 118°13'1 0.4
2014-Dec-17 13:21N 33°45' W 118°14'1 0.4
2014-Dec-17 11:19N 33°45' W 118°13'0 0.0
2014-Dec-17 10:33N 33°45' W 118°13'0 0.2
2014-Dec-17 09:19N 33°45' W 118°13'1 1.4
2014-Dec-17 08:34N 33°46' W 118°13'2 0.4
2014-Dec-17 03:10N 33°46' W 118°16'0 0.4
2014-Dec-17 02:32N 33°46' W 118°16'0 0.0
2014-Dec-17 00:27N 33°46' W 118°16'0 0.4
2014-Dec-16 23:34N 33°46' W 118°16'0 0.0
2014-Dec-16 22:31N 33°46' W 118°16'0 0.0
2014-Dec-16 21:33N 33°46' W 118°16'0 0.0
2014-Dec-16 20:33N 33°46' W 118°16'2 0.3
2014-Dec-16 15:27N 33°45' W 118°14'1 0.9
2014-Dec-16 14:06N 33°46' W 118°13'1 1.4
2014-Dec-16 13:32N 33°46' W 118°13'1 0.0
2014-Dec-15 22:23N 33°45' W 118°14'1 0.1
2014-Dec-15 15:05N 33°45' W 118°13'0 0.0
2014-Dec-15 14:33N 33°45' W 118°13'1 0.9
2014-Dec-15 13:33N 33°46' W 118°13'1 0.4
2014-Dec-15 11:33N 33°45' W 118°13'1 1.0
2014-Dec-15 10:33N 33°46' W 118°13'1 0.0
2014-Dec-14 08:19N 33°45' W 118°13'1 1.2
2014-Dec-14 07:33N 33°46' W 118°13'1 0.1
2014-Dec-14 00:32N 33°46' W 118°14'1 1.0
2014-Dec-13 23:11N 33°45' W 118°13'1 1.0
2014-Dec-13 22:15N 33°46' W 118°13'2 2.6
2014-Dec-13 21:31N 33°46' W 118°16'0 0.1
2014-Dec-13 20:26N 33°46' W 118°16'0 0.1
2014-Dec-13 16:31N 33°46' W 118°16'3 0.1
2014-Dec-12 00:17N 33°45' W 118°12'0 0.0
2014-Dec-11 19:21N 33°45' W 118°12'1 0.0
2014-Dec-11 04:29N 33°45' W 118°13'2 1.1
2014-Dec-11 02:09N 33°43' W 118°15'3 4.5
2014-Dec-11 01:32N 33°45' W 118°16'0 0.5
2014-Dec-11 00:34N 33°45' W 118°16'1 1.2
2014-Dec-10 23:34N 33°44' W 118°16'0 0.0
2014-Dec-10 22:32N 33°44' W 118°16'0 0.0
2014-Dec-10 21:29N 33°44' W 118°16'0 0.0
2014-Dec-10 14:28N 33°44' W 118°15'2 2.4
2014-Dec-10 13:28N 33°45' W 118°13'0 0.2
2014-Dec-10 11:33N 33°45' W 118°13'1 1.4
2014-Dec-10 10:32N 33°46' W 118°13'3 3.0
2014-Dec-10 09:29N 33°44' W 118°16'0 0.0
2014-Dec-10 08:33N 33°44' W 118°16'  
Track history (hours):
 
Tides and Currents Weather Stations Pressure Air Temp Water Temp Dewpoint Dewpoint Depression Visibility Wind Speed Wind Dir Waves Ship Positions

John Quigg

Owner: Harley Marine Services, Inc, Seattle, WA. More information available from US FCC via Universal Licensing System and Coast Guard Vessel Documentation Center.

Last reported at 2014-Dec-20 08:08 UTC. Time now 2014-Dec-20 20:53 UTC.
Position N 33°46' W 118°13'.

MMSI: 365934954.

Date/timePositionNaut miles runAvg speedWind from/ knotsBaromVisibWave heightAir tempDewpointWater temp
2014-Dec-20 08:08N 33°46' W 118°13'1 0.1
2014-Dec-20 02:28N 33°45' W 118°13'1 0.7
2014-Dec-20 01:33N 33°46' W 118°13'1 0.1
2014-Dec-19 20:23N 33°45' W 118°13'1 1.3
2014-Dec-19 19:28N 33°46' W 118°13'1 1.3
2014-Dec-19 18:33N 33°45' W 118°13'2 0.3
2014-Dec-19 12:26N 33°46' W 118°15'0 0.0
2014-Dec-19 00:31N 33°46' W 118°16'3 3.1
2014-Dec-18 23:31N 33°44' W 118°12'3 0.3
2014-Dec-18 14:33N 33°46' W 118°15'2 1.8
2014-Dec-18 13:24N 33°46' W 118°13'1 0.3
2014-Dec-18 10:28N 33°46' W 118°13'3 0.3
2014-Dec-17 23:32N 33°45' W 118°17'3 0.4
2014-Dec-17 16:21N 33°45' W 118°13'0 0.6
2014-Dec-17 15:34N 33°46' W 118°13'1 0.4
2014-Dec-17 13:21N 33°45' W 118°14'1 0.4
2014-Dec-17 11:19N 33°45' W 118°13'0 0.0
2014-Dec-17 10:33N 33°45' W 118°13'0 0.2
2014-Dec-17 09:19N 33°45' W 118°13'1 1.4
2014-Dec-17 08:34N 33°46' W 118°13'2 0.4
2014-Dec-17 03:10N 33°46' W 118°16'0 0.4
2014-Dec-17 02:32N 33°46' W 118°16'0 0.0
2014-Dec-17 00:27N 33°46' W 118°16'0 0.4
2014-Dec-16 23:34N 33°46' W 118°16'0 0.0
2014-Dec-16 22:31N 33°46' W 118°16'0 0.0
2014-Dec-16 21:33N 33°46' W 118°16'0 0.0
2014-Dec-16 20:33N 33°46' W 118°16'2 0.3
2014-Dec-16 15:27N 33°45' W 118°14'1 0.9
2014-Dec-16 14:06N 33°46' W 118°13'1 1.4
2014-Dec-16 13:32N 33°46' W 118°13'1 0.0
2014-Dec-15 22:23N 33°45' W 118°14'1 0.1
2014-Dec-15 15:05N 33°45' W 118°13'0 0.0
2014-Dec-15 14:33N 33°45' W 118°13'1 0.9
2014-Dec-15 13:33N 33°46' W 118°13'1 0.4
2014-Dec-15 11:33N 33°45' W 118°13'1 1.0
2014-Dec-15 10:33N 33°46' W 118°13'1 0.0
2014-Dec-14 08:19N 33°45' W 118°13'1 1.2
2014-Dec-14 07:33N 33°46' W 118°13'1 0.1
2014-Dec-14 00:32N 33°46' W 118°14'1 1.0
2014-Dec-13 23:11N 33°45' W 118°13'1 1.0
2014-Dec-13 22:15N 33°46' W 118°13'2 2.6
2014-Dec-13 21:31N 33°46' W 118°16'0 0.1
2014-Dec-13 20:26N 33°46' W 118°16'0 0.1
2014-Dec-13 16:31N 33°46' W 118°16'3 0.1
2014-Dec-12 00:17N 33°45' W 118°12'0 0.0
2014-Dec-11 19:21N 33°45' W 118°12'1 0.0
2014-Dec-11 04:29N 33°45' W 118°13'2 1.1
2014-Dec-11 02:09N 33°43' W 118°15'3 4.5
2014-Dec-11 01:32N 33°45' W 118°16'0 0.5
2014-Dec-11 00:34N 33°45' W 118°16'1 1.2
2014-Dec-10 23:34N 33°44' W 118°16'0 0.0
2014-Dec-10 22:32N 33°44' W 118°16'0 0.0
2014-Dec-10 21:29N 33°44' W 118°16'0 0.0
2014-Dec-10 14:28N 33°44' W 118°15'2 2.4
2014-Dec-10 13:28N 33°45' W 118°13'0 0.2
2014-Dec-10 11:33N 33°45' W 118°13'1 1.4
2014-Dec-10 10:32N 33°46' W 118°13'3 3.0
2014-Dec-10 09:29N 33°44' W 118°16'0 0.0
2014-Dec-10 08:33N 33°44' W 118°16'  

Dump ship's entire track history